sensor_id;sensor_type;location;lat;lon;timestamp;temperature;humidity
1011;DHT22;494;48.744;10.106;2023-05-16T00:00:32;10.80;44.10
1011;DHT22;494;48.744;10.106;2023-05-16T00:03:01;10.90;43.80
1011;DHT22;494;48.744;10.106;2023-05-16T00:05:30;10.90;43.00
1011;DHT22;494;48.744;10.106;2023-05-16T00:08:00;11.00;42.30
1011;DHT22;494;48.744;10.106;2023-05-16T00:10:29;11.10;42.00
1011;DHT22;494;48.744;10.106;2023-05-16T00:12:58;11.20;41.50
1011;DHT22;494;48.744;10.106;2023-05-16T00:15:28;11.20;41.10
1011;DHT22;494;48.744;10.106;2023-05-16T00:17:57;11.10;41.50
1011;DHT22;494;48.744;10.106;2023-05-16T00:20:27;11.00;41.60
1011;DHT22;494;48.744;10.106;2023-05-16T00:22:56;10.90;41.80
1011;DHT22;494;48.744;10.106;2023-05-16T00:25:28;10.80;41.70
1011;DHT22;494;48.744;10.106;2023-05-16T00:27:57;10.70;41.80
1011;DHT22;494;48.744;10.106;2023-05-16T00:30:26;10.60;42.30
1011;DHT22;494;48.744;10.106;2023-05-16T00:32:55;10.50;42.60
1011;DHT22;494;48.744;10.106;2023-05-16T00:35:24;10.50;42.90
1011;DHT22;494;48.744;10.106;2023-05-16T00:37:52;10.20;43.90
1011;DHT22;494;48.744;10.106;2023-05-16T00:40:21;9.90;46.00
1011;DHT22;494;48.744;10.106;2023-05-16T00:42:52;9.80;46.70
1011;DHT22;494;48.744;10.106;2023-05-16T00:45:20;9.80;46.90
1011;DHT22;494;48.744;10.106;2023-05-16T00:47:49;9.70;47.50
1011;DHT22;494;48.744;10.106;2023-05-16T00:50:18;9.80;47.50
1011;DHT22;494;48.744;10.106;2023-05-16T00:52:47;9.90;47.20
1011;DHT22;494;48.744;10.106;2023-05-16T00:55:16;9.80;47.00
1011;DHT22;494;48.744;10.106;2023-05-16T00:57:45;9.90;47.00
1011;DHT22;494;48.744;10.106;2023-05-16T01:00:16;10.00;46.80
1011;DHT22;494;48.744;10.106;2023-05-16T01:02:46;10.10;46.60
1011;DHT22;494;48.744;10.106;2023-05-16T01:05:15;10.30;46.20
1011;DHT22;494;48.744;10.106;2023-05-16T01:07:44;10.40;45.70
1011;DHT22;494;48.744;10.106;2023-05-16T01:10:13;10.50;45.20
1011;DHT22;494;48.744;10.106;2023-05-16T01:12:51;10.60;45.20
1011;DHT22;494;48.744;10.106;2023-05-16T01:15:34;10.60;44.00
1011;DHT22;494;48.744;10.106;2023-05-16T01:18:21;10.70;44.20
1011;DHT22;494;48.744;10.106;2023-05-16T01:20:59;10.80;43.00
1011;DHT22;494;48.744;10.106;2023-05-16T01:23:40;10.80;42.20
1011;DHT22;494;48.744;10.106;2023-05-16T01:26:19;10.80;41.80
1011;DHT22;494;48.744;10.106;2023-05-16T01:28:50;10.90;41.50
1011;DHT22;494;48.744;10.106;2023-05-16T01:31:20;11.00;41.20
1011;DHT22;494;48.744;10.106;2023-05-16T01:33:50;11.00;41.00
1011;DHT22;494;48.744;10.106;2023-05-16T01:36:24;11.00;40.90
1011;DHT22;494;48.744;10.106;2023-05-16T01:39:08;11.00;40.30
1011;DHT22;494;48.744;10.106;2023-05-16T01:41:52;11.00;40.60
1011;DHT22;494;48.744;10.106;2023-05-16T01:44:30;11.10;40.60
1011;DHT22;494;48.744;10.106;2023-05-16T01:47:08;11.10;40.20
1011;DHT22;494;48.744;10.106;2023-05-16T01:49:43;11.10;40.00
1011;DHT22;494;48.744;10.106;2023-05-16T01:52:21;11.00;39.80
1011;DHT22;494;48.744;10.106;2023-05-16T01:55:00;11.10;39.80
1011;DHT22;494;48.744;10.106;2023-05-16T01:57:31;11.10;40.00
1011;DHT22;494;48.744;10.106;2023-05-16T02:00:01;11.10;40.10
1011;DHT22;494;48.744;10.106;2023-05-16T02:02:30;11.20;40.10
1011;DHT22;494;48.744;10.106;2023-05-16T02:04:59;11.20;40.20
1011;DHT22;494;48.744;10.106;2023-05-16T02:07:27;11.30;40.30
1011;DHT22;494;48.744;10.106;2023-05-16T02:09:56;11.40;40.10
1011;DHT22;494;48.744;10.106;2023-05-16T02:12:25;11.40;40.00
1011;DHT22;494;48.744;10.106;2023-05-16T02:14:55;11.40;39.70
1011;DHT22;494;48.744;10.106;2023-05-16T02:17:24;11.30;39.50
1011;DHT22;494;48.744;10.106;2023-05-16T02:19:52;11.20;39.50
1011;DHT22;494;48.744;10.106;2023-05-16T02:22:21;11.20;39.80
1011;DHT22;494;48.744;10.106;2023-05-16T02:24:50;11.10;40.10
1011;DHT22;494;48.744;10.106;2023-05-16T02:27:18;11.10;40.50
1011;DHT22;494;48.744;10.106;2023-05-16T02:29:47;11.10;40.80
1011;DHT22;494;48.744;10.106;2023-05-16T02:32:17;11.10;41.20
1011;DHT22;494;48.744;10.106;2023-05-16T02:34:46;10.90;41.30
1011;DHT22;494;48.744;10.106;2023-05-16T02:37:15;10.80;42.00
1011;DHT22;494;48.744;10.106;2023-05-16T02:39:43;10.70;42.60
1011;DHT22;494;48.744;10.106;2023-05-16T02:42:12;10.80;42.70
1011;DHT22;494;48.744;10.106;2023-05-16T02:44:41;10.70;42.80
1011;DHT22;494;48.744;10.106;2023-05-16T02:47:09;10.80;43.00
1011;DHT22;494;48.744;10.106;2023-05-16T02:49:40;10.80;43.20
1011;DHT22;494;48.744;10.106;2023-05-16T02:52:08;11.00;43.10
1011;DHT22;494;48.744;10.106;2023-05-16T02:54:38;11.00;42.80
1011;DHT22;494;48.744;10.106;2023-05-16T02:57:06;11.10;42.60
1011;DHT22;494;48.744;10.106;2023-05-16T02:59:35;11.00;42.40
1011;DHT22;494;48.744;10.106;2023-05-16T03:02:04;11.00;42.40
1011;DHT22;494;48.744;10.106;2023-05-16T03:04:33;11.10;43.00
1011;DHT22;494;48.744;10.106;2023-05-16T03:07:04;11.00;42.60
1011;DHT22;494;48.744;10.106;2023-05-16T03:09:33;11.00;42.70
1011;DHT22;494;48.744;10.106;2023-05-16T03:12:02;11.00;42.80
1011;DHT22;494;48.744;10.106;2023-05-16T03:14:32;11.00;42.80
1011;DHT22;494;48.744;10.106;2023-05-16T03:17:01;10.90;42.80
1011;DHT22;494;48.744;10.106;2023-05-16T03:19:30;10.80;43.20
1011;DHT22;494;48.744;10.106;2023-05-16T03:21:59;10.70;44.70
1011;DHT22;494;48.744;10.106;2023-05-16T03:24:29;10.60;45.40
1011;DHT22;494;48.744;10.106;2023-05-16T03:26:58;10.50;45.80
1011;DHT22;494;48.744;10.106;2023-05-16T03:29:27;10.50;46.30
1011;DHT22;494;48.744;10.106;2023-05-16T03:31:56;10.50;46.40
1011;DHT22;494;48.744;10.106;2023-05-16T03:34:25;10.50;45.80
1011;DHT22;494;48.744;10.106;2023-05-16T03:36:54;10.60;45.20
1011;DHT22;494;48.744;10.106;2023-05-16T03:39:23;10.60;45.60
1011;DHT22;494;48.744;10.106;2023-05-16T03:41:53;10.60;44.50
1011;DHT22;494;48.744;10.106;2023-05-16T03:44:23;10.60;45.00
1011;DHT22;494;48.744;10.106;2023-05-16T03:46:52;10.70;45.40
1011;DHT22;494;48.744;10.106;2023-05-16T03:49:25;10.80;45.20
1011;DHT22;494;48.744;10.106;2023-05-16T03:51:54;10.70;44.70
1011;DHT22;494;48.744;10.106;2023-05-16T03:54:24;10.60;45.00
1011;DHT22;494;48.744;10.106;2023-05-16T03:56:55;10.40;45.70
1011;DHT22;494;48.744;10.106;2023-05-16T03:59:23;10.20;46.50
1011;DHT22;494;48.744;10.106;2023-05-16T04:01:52;10.20;48.00
1011;DHT22;494;48.744;10.106;2023-05-16T04:04:21;10.10;48.20
1011;DHT22;494;48.744;10.106;2023-05-16T04:06:50;10.10;48.70
1011;DHT22;494;48.744;10.106;2023-05-16T04:09:18;10.00;48.80
1011;DHT22;494;48.744;10.106;2023-05-16T04:11:47;10.00;48.90
1011;DHT22;494;48.744;10.106;2023-05-16T04:14:17;10.10;48.90
1011;DHT22;494;48.744;10.106;2023-05-16T04:16:46;10.20;49.30
1011;DHT22;494;48.744;10.106;2023-05-16T04:19:15;10.30;49.80
1011;DHT22;494;48.744;10.106;2023-05-16T04:21:44;10.40;49.70
1011;DHT22;494;48.744;10.106;2023-05-16T04:24:13;10.50;49.80
1011;DHT22;494;48.744;10.106;2023-05-16T04:26:43;10.60;49.60
1011;DHT22;494;48.744;10.106;2023-05-16T04:29:11;10.60;49.00
1011;DHT22;494;48.744;10.106;2023-05-16T04:31:42;10.80;49.00
1011;DHT22;494;48.744;10.106;2023-05-16T04:34:10;10.80;48.20
1011;DHT22;494;48.744;10.106;2023-05-16T04:36:39;10.90;49.10
1011;DHT22;494;48.744;10.106;2023-05-16T04:39:08;11.10;48.90
1011;DHT22;494;48.744;10.106;2023-05-16T04:41:37;11.20;48.40
1011;DHT22;494;48.744;10.106;2023-05-16T04:44:06;11.40;48.00
1011;DHT22;494;48.744;10.106;2023-05-16T04:46:37;11.50;47.80
1011;DHT22;494;48.744;10.106;2023-05-16T04:49:07;11.60;47.50
1011;DHT22;494;48.744;10.106;2023-05-16T04:51:37;11.70;46.60
1011;DHT22;494;48.744;10.106;2023-05-16T04:54:06;11.80;46.80
1011;DHT22;494;48.744;10.106;2023-05-16T04:56:35;11.90;45.50
1011;DHT22;494;48.744;10.106;2023-05-16T04:59:03;12.00;45.60
1011;DHT22;494;48.744;10.106;2023-05-16T05:01:32;12.20;45.70
1011;DHT22;494;48.744;10.106;2023-05-16T05:04:01;12.40;45.80
1011;DHT22;494;48.744;10.106;2023-05-16T05:06:31;12.60;45.30
1011;DHT22;494;48.744;10.106;2023-05-16T05:09:00;12.80;44.90
1011;DHT22;494;48.744;10.106;2023-05-16T05:11:29;12.90;43.60
1011;DHT22;494;48.744;10.106;2023-05-16T05:13:57;13.00;43.90
1011;DHT22;494;48.744;10.106;2023-05-16T05:16:26;13.00;43.90
1011;DHT22;494;48.744;10.106;2023-05-16T05:18:55;13.00;42.90
1011;DHT22;494;48.744;10.106;2023-05-16T05:21:24;13.00;43.60
1011;DHT22;494;48.744;10.106;2023-05-16T05:23:54;13.10;44.00
1011;DHT22;494;48.744;10.106;2023-05-16T05:26:26;13.20;43.80
1011;DHT22;494;48.744;10.106;2023-05-16T05:28:55;13.40;43.40
1011;DHT22;494;48.744;10.106;2023-05-16T05:31:31;13.50;43.10
1011;DHT22;494;48.744;10.106;2023-05-16T05:34:02;13.60;42.40
1011;DHT22;494;48.744;10.106;2023-05-16T05:36:31;13.80;42.30
1011;DHT22;494;48.744;10.106;2023-05-16T05:39:02;13.90;42.10
1011;DHT22;494;48.744;10.106;2023-05-16T05:41:31;14.00;41.50
1011;DHT22;494;48.744;10.106;2023-05-16T05:44:00;14.10;41.00
1011;DHT22;494;48.744;10.106;2023-05-16T05:46:29;14.30;40.50
1011;DHT22;494;48.744;10.106;2023-05-16T05:48:58;14.30;39.10
1011;DHT22;494;48.744;10.106;2023-05-16T05:51:27;14.30;38.80
1011;DHT22;494;48.744;10.106;2023-05-16T05:53:56;14.30;39.00
1011;DHT22;494;48.744;10.106;2023-05-16T05:56:27;14.40;38.30
1011;DHT22;494;48.744;10.106;2023-05-16T05:58:56;14.50;37.90
1011;DHT22;494;48.744;10.106;2023-05-16T06:01:26;14.60;37.70
1011;DHT22;494;48.744;10.106;2023-05-16T06:03:57;14.70;37.00
1011;DHT22;494;48.744;10.106;2023-05-16T06:06:28;14.80;36.30
1011;DHT22;494;48.744;10.106;2023-05-16T06:08:58;14.70;36.90
1011;DHT22;494;48.744;10.106;2023-05-16T06:11:28;14.80;36.20
1011;DHT22;494;48.744;10.106;2023-05-16T06:13:57;14.90;36.40
1011;DHT22;494;48.744;10.106;2023-05-16T06:16:30;15.00;35.70
1011;DHT22;494;48.744;10.106;2023-05-16T06:18:59;15.00;35.10
1011;DHT22;494;48.744;10.106;2023-05-16T06:21:27;15.00;34.70
1011;DHT22;494;48.744;10.106;2023-05-16T06:23:56;15.10;34.70
1011;DHT22;494;48.744;10.106;2023-05-16T06:26:25;15.10;34.40
1011;DHT22;494;48.744;10.106;2023-05-16T06:28:55;15.00;34.40
1011;DHT22;494;48.744;10.106;2023-05-16T06:31:24;15.10;34.50
1011;DHT22;494;48.744;10.106;2023-05-16T06:48:07;15.30;33.20
1011;DHT22;494;48.744;10.106;2023-05-16T06:50:36;14.80;34.40
1011;DHT22;494;48.744;10.106;2023-05-16T06:53:05;14.80;34.80
1011;DHT22;494;48.744;10.106;2023-05-16T06:55:34;14.90;35.20
1011;DHT22;494;48.744;10.106;2023-05-16T06:58:03;14.90;34.80
1011;DHT22;494;48.744;10.106;2023-05-16T07:00:32;14.90;34.70
1011;DHT22;494;48.744;10.106;2023-05-16T07:03:01;14.90;34.80
1011;DHT22;494;48.744;10.106;2023-05-16T07:05:32;14.90;34.90
1011;DHT22;494;48.744;10.106;2023-05-16T07:08:01;15.10;35.10
1011;DHT22;494;48.744;10.106;2023-05-16T07:10:33;15.20;33.80
1011;DHT22;494;48.744;10.106;2023-05-16T07:13:02;15.30;33.60
1011;DHT22;494;48.744;10.106;2023-05-16T07:15:32;15.50;33.60
1011;DHT22;494;48.744;10.106;2023-05-16T07:18:05;15.70;32.60
1011;DHT22;494;48.744;10.106;2023-05-16T07:20:35;15.90;31.80
1011;DHT22;494;48.744;10.106;2023-05-16T07:23:04;16.00;31.40
1011;DHT22;494;48.744;10.106;2023-05-16T07:25:33;15.90;31.30
1011;DHT22;494;48.744;10.106;2023-05-16T07:28:02;16.00;30.90
1011;DHT22;494;48.744;10.106;2023-05-16T07:30:32;16.10;31.60
1011;DHT22;494;48.744;10.106;2023-05-16T07:33:01;16.30;30.30
1011;DHT22;494;48.744;10.106;2023-05-16T07:35:30;16.50;29.30
1011;DHT22;494;48.744;10.106;2023-05-16T07:38:00;16.40;28.80
1011;DHT22;494;48.744;10.106;2023-05-16T07:40:29;16.20;29.40
1011;DHT22;494;48.744;10.106;2023-05-16T07:42:58;16.00;29.90
1011;DHT22;494;48.744;10.106;2023-05-16T07:45:28;15.90;31.30
1011;DHT22;494;48.744;10.106;2023-05-16T07:47:57;15.80;30.70
1011;DHT22;494;48.744;10.106;2023-05-16T07:50:26;15.70;31.40
1011;DHT22;494;48.744;10.106;2023-05-16T07:52:55;15.80;31.60
1011;DHT22;494;48.744;10.106;2023-05-16T07:55:26;15.80;31.30
1011;DHT22;494;48.744;10.106;2023-05-16T07:57:55;15.70;31.70
1011;DHT22;494;48.744;10.106;2023-05-16T08:00:24;15.80;31.80
1011;DHT22;494;48.744;10.106;2023-05-16T08:02:52;15.80;31.50
1011;DHT22;494;48.744;10.106;2023-05-16T08:05:22;15.90;32.10
1011;DHT22;494;48.744;10.106;2023-05-16T08:07:51;15.90;31.60
1011;DHT22;494;48.744;10.106;2023-05-16T08:10:21;15.90;31.40
1011;DHT22;494;48.744;10.106;2023-05-16T08:12:52;15.90;31.20
1011;DHT22;494;48.744;10.106;2023-05-16T08:15:20;15.90;31.70
1011;DHT22;494;48.744;10.106;2023-05-16T08:17:49;16.00;32.30
1011;DHT22;494;48.744;10.106;2023-05-16T08:20:18;16.00;32.70
1011;DHT22;494;48.744;10.106;2023-05-16T08:22:47;16.30;31.50
1011;DHT22;494;48.744;10.106;2023-05-16T08:25:16;16.40;31.80
1011;DHT22;494;48.744;10.106;2023-05-16T08:27:47;16.40;30.80
1011;DHT22;494;48.744;10.106;2023-05-16T08:30:18;16.30;30.70
1011;DHT22;494;48.744;10.106;2023-05-16T08:32:47;16.10;31.00
1011;DHT22;494;48.744;10.106;2023-05-16T08:35:20;16.00;32.40
1011;DHT22;494;48.744;10.106;2023-05-16T08:37:48;16.00;32.60
1011;DHT22;494;48.744;10.106;2023-05-16T08:40:17;16.10;31.60
1011;DHT22;494;48.744;10.106;2023-05-16T08:42:46;16.00;31.70
1011;DHT22;494;48.744;10.106;2023-05-16T08:45:16;16.00;31.80
1011;DHT22;494;48.744;10.106;2023-05-16T08:47:49;16.10;31.50
1011;DHT22;494;48.744;10.106;2023-05-16T08:50:18;16.30;31.90
1011;DHT22;494;48.744;10.106;2023-05-16T08:52:50;16.50;30.90
1011;DHT22;494;48.744;10.106;2023-05-16T08:55:22;16.60;29.60
1011;DHT22;494;48.744;10.106;2023-05-16T08:57:54;16.60;30.20
1011;DHT22;494;48.744;10.106;2023-05-16T09:00:27;16.60;29.80
1011;DHT22;494;48.744;10.106;2023-05-16T09:02:57;16.50;29.60
1011;DHT22;494;48.744;10.106;2023-05-16T09:05:29;16.50;29.80
1011;DHT22;494;48.744;10.106;2023-05-16T09:07:58;16.60;30.90
1011;DHT22;494;48.744;10.106;2023-05-16T09:10:27;16.80;28.80
1011;DHT22;494;48.744;10.106;2023-05-16T09:12:55;16.80;28.60
1011;DHT22;494;48.744;10.106;2023-05-16T09:15:32;16.80;29.10
1011;DHT22;494;48.744;10.106;2023-05-16T09:18:01;16.80;28.30
1011;DHT22;494;48.744;10.106;2023-05-16T09:20:31;16.80;28.50
1011;DHT22;494;48.744;10.106;2023-05-16T09:23:00;16.50;29.70
1011;DHT22;494;48.744;10.106;2023-05-16T09:25:31;16.40;30.70
1011;DHT22;494;48.744;10.106;2023-05-16T09:28:01;16.30;30.90
1011;DHT22;494;48.744;10.106;2023-05-16T09:30:33;16.30;30.90
1011;DHT22;494;48.744;10.106;2023-05-16T09:33:05;16.20;31.60
1011;DHT22;494;48.744;10.106;2023-05-16T09:35:35;16.20;30.90
1011;DHT22;494;48.744;10.106;2023-05-16T09:38:13;16.30;31.40
1011;DHT22;494;48.744;10.106;2023-05-16T09:40:43;16.50;29.70
1011;DHT22;494;48.744;10.106;2023-05-16T09:43:15;16.50;30.00
1011;DHT22;494;48.744;10.106;2023-05-16T09:45:47;16.50;29.30
1011;DHT22;494;48.744;10.106;2023-05-16T09:48:16;16.50;29.30
1011;DHT22;494;48.744;10.106;2023-05-16T09:50:47;16.40;29.20
1011;DHT22;494;48.744;10.106;2023-05-16T09:53:26;16.20;29.50
1011;DHT22;494;48.744;10.106;2023-05-16T09:56:02;16.20;30.60
1011;DHT22;494;48.744;10.106;2023-05-16T09:58:36;16.20;30.10
1011;DHT22;494;48.744;10.106;2023-05-16T10:01:08;16.30;29.90
1011;DHT22;494;48.744;10.106;2023-05-16T10:03:39;16.20;30.30
1011;DHT22;494;48.744;10.106;2023-05-16T10:06:09;16.20;29.90
1011;DHT22;494;48.744;10.106;2023-05-16T10:08:42;16.10;30.00
1011;DHT22;494;48.744;10.106;2023-05-16T10:11:12;15.80;30.60
1011;DHT22;494;48.744;10.106;2023-05-16T10:13:45;15.80;31.20
1011;DHT22;494;48.744;10.106;2023-05-16T10:16:21;15.60;31.40
1011;DHT22;494;48.744;10.106;2023-05-16T10:18:51;15.60;32.50
1011;DHT22;494;48.744;10.106;2023-05-16T10:21:22;15.50;32.50
1011;DHT22;494;48.744;10.106;2023-05-16T10:23:56;15.40;32.30
1011;DHT22;494;48.744;10.106;2023-05-16T10:26:31;15.30;32.70
1011;DHT22;494;48.744;10.106;2023-05-16T10:29:02;15.30;33.20
1011;DHT22;494;48.744;10.106;2023-05-16T10:31:33;15.30;33.00
1011;DHT22;494;48.744;10.106;2023-05-16T10:34:03;15.30;32.30
1011;DHT22;494;48.744;10.106;2023-05-16T10:36:39;15.20;32.10
1011;DHT22;494;48.744;10.106;2023-05-16T10:39:08;15.10;32.00
1011;DHT22;494;48.744;10.106;2023-05-16T10:41:38;15.00;32.20
1011;DHT22;494;48.744;10.106;2023-05-16T10:44:14;15.00;32.00
1011;DHT22;494;48.744;10.106;2023-05-16T10:46:46;15.20;31.70
1011;DHT22;494;48.744;10.106;2023-05-16T10:49:22;15.20;32.00
1011;DHT22;494;48.744;10.106;2023-05-16T10:52:04;15.20;31.50
1011;DHT22;494;48.744;10.106;2023-05-16T10:54:37;15.20;31.50
1011;DHT22;494;48.744;10.106;2023-05-16T10:57:09;15.10;31.30
1011;DHT22;494;48.744;10.106;2023-05-16T10:59:43;15.10;31.50
1011;DHT22;494;48.744;10.106;2023-05-16T11:02:24;15.00;31.00
1011;DHT22;494;48.744;10.106;2023-05-16T11:04:56;15.10;31.10
1011;DHT22;494;48.744;10.106;2023-05-16T11:07:31;15.00;30.50
1011;DHT22;494;48.744;10.106;2023-05-16T11:10:03;14.90;31.10
1011;DHT22;494;48.744;10.106;2023-05-16T11:12:41;15.00;31.20
1011;DHT22;494;48.744;10.106;2023-05-16T11:15:22;15.30;31.10
1011;DHT22;494;48.744;10.106;2023-05-16T11:18:07;15.60;29.80
1011;DHT22;494;48.744;10.106;2023-05-16T11:20:37;15.80;29.00
1011;DHT22;494;48.744;10.106;2023-05-16T11:23:24;16.00;28.30
1011;DHT22;494;48.744;10.106;2023-05-16T11:25:55;16.10;27.10
1011;DHT22;494;48.744;10.106;2023-05-16T11:28:25;16.10;27.10
1011;DHT22;494;48.744;10.106;2023-05-16T11:30:58;16.10;26.70
1011;DHT22;494;48.744;10.106;2023-05-16T11:33:30;16.10;27.50
1011;DHT22;494;48.744;10.106;2023-05-16T11:36:02;16.30;26.90
1011;DHT22;494;48.744;10.106;2023-05-16T11:38:35;16.30;26.40
1011;DHT22;494;48.744;10.106;2023-05-16T11:41:07;16.30;25.70
1011;DHT22;494;48.744;10.106;2023-05-16T11:43:39;16.30;26.60
1011;DHT22;494;48.744;10.106;2023-05-16T11:46:10;16.50;26.10
1011;DHT22;494;48.744;10.106;2023-05-16T11:48:41;16.70;25.20
1011;DHT22;494;48.744;10.106;2023-05-16T11:51:12;16.90;24.50
1011;DHT22;494;48.744;10.106;2023-05-16T11:53:48;17.00;23.10
1011;DHT22;494;48.744;10.106;2023-05-16T11:56:17;17.20;21.80
1011;DHT22;494;48.744;10.106;2023-05-16T11:58:48;17.00;22.10
1011;DHT22;494;48.744;10.106;2023-05-16T12:01:17;17.00;22.00
1011;DHT22;494;48.744;10.106;2023-05-16T12:03:54;16.90;23.00
1011;DHT22;494;48.744;10.106;2023-05-16T12:06:24;16.90;23.10
1011;DHT22;494;48.744;10.106;2023-05-16T12:08:55;16.90;22.60
1011;DHT22;494;48.744;10.106;2023-05-16T12:11:25;16.80;22.80
1011;DHT22;494;48.744;10.106;2023-05-16T12:13:54;17.00;22.70
1011;DHT22;494;48.744;10.106;2023-05-16T12:16:23;16.90;22.40
1011;DHT22;494;48.744;10.106;2023-05-16T12:18:54;17.00;23.00
1011;DHT22;494;48.744;10.106;2023-05-16T12:21:23;17.30;21.50
1011;DHT22;494;48.744;10.106;2023-05-16T12:23:54;17.50;21.90
1011;DHT22;494;48.744;10.106;2023-05-16T12:26:25;17.80;20.00
1011;DHT22;494;48.744;10.106;2023-05-16T12:28:57;18.10;18.70
1011;DHT22;494;48.744;10.106;2023-05-16T12:31:26;18.30;18.90
1011;DHT22;494;48.744;10.106;2023-05-16T12:34:00;18.60;18.00
1011;DHT22;494;48.744;10.106;2023-05-16T12:36:31;18.90;17.00
1011;DHT22;494;48.744;10.106;2023-05-16T12:39:02;18.90;17.00
1011;DHT22;494;48.744;10.106;2023-05-16T12:41:31;19.00;16.30
1011;DHT22;494;48.744;10.106;2023-05-16T12:44:08;19.00;16.30
1011;DHT22;494;48.744;10.106;2023-05-16T12:46:43;19.00;16.20
1011;DHT22;494;48.744;10.106;2023-05-16T12:49:18;19.00;16.20
1011;DHT22;494;48.744;10.106;2023-05-16T12:51:49;18.90;16.40
1011;DHT22;494;48.744;10.106;2023-05-16T12:54:20;18.80;17.20
1011;DHT22;494;48.744;10.106;2023-05-16T12:56:49;18.80;16.40
1011;DHT22;494;48.744;10.106;2023-05-16T12:59:18;18.50;16.80
1011;DHT22;494;48.744;10.106;2023-05-16T13:01:50;18.10;17.60
1011;DHT22;494;48.744;10.106;2023-05-16T13:04:20;17.90;18.00
1011;DHT22;494;48.744;10.106;2023-05-16T13:06:50;17.50;19.30
1011;DHT22;494;48.744;10.106;2023-05-16T13:09:25;17.50;19.90
1011;DHT22;494;48.744;10.106;2023-05-16T13:11:59;17.70;19.60
1011;DHT22;494;48.744;10.106;2023-05-16T13:14:28;17.70;19.20
1011;DHT22;494;48.744;10.106;2023-05-16T13:16:57;17.60;19.00
1011;DHT22;494;48.744;10.106;2023-05-16T13:19:27;17.60;19.10
1011;DHT22;494;48.744;10.106;2023-05-16T13:21:58;17.50;18.70
1011;DHT22;494;48.744;10.106;2023-05-16T13:24:26;17.80;18.70
1011;DHT22;494;48.744;10.106;2023-05-16T13:26:55;18.00;18.00
1011;DHT22;494;48.744;10.106;2023-05-16T13:29:27;18.20;17.60
1011;DHT22;494;48.744;10.106;2023-05-16T13:31:55;18.40;17.40
1011;DHT22;494;48.744;10.106;2023-05-16T13:34:24;18.40;16.90
1011;DHT22;494;48.744;10.106;2023-05-16T13:36:55;18.70;16.60
1011;DHT22;494;48.744;10.106;2023-05-16T13:39:23;18.70;15.90
1011;DHT22;494;48.744;10.106;2023-05-16T13:41:52;18.60;16.80
1011;DHT22;494;48.744;10.106;2023-05-16T13:44:21;18.50;16.10
1011;DHT22;494;48.744;10.106;2023-05-16T13:46:50;18.50;16.90
1011;DHT22;494;48.744;10.106;2023-05-16T13:49:19;18.40;17.20
1011;DHT22;494;48.744;10.106;2023-05-16T13:51:48;18.20;17.20
1011;DHT22;494;48.744;10.106;2023-05-16T13:54:19;17.90;17.90
1011;DHT22;494;48.744;10.106;2023-05-16T13:56:48;17.80;17.60
1011;DHT22;494;48.744;10.106;2023-05-16T13:59:18;17.60;18.50
1011;DHT22;494;48.744;10.106;2023-05-16T14:02:07;17.50;18.90
1011;DHT22;494;48.744;10.106;2023-05-16T14:04:36;17.40;19.20
1011;DHT22;494;48.744;10.106;2023-05-16T14:07:05;17.50;19.60
1011;DHT22;494;48.744;10.106;2023-05-16T14:09:36;17.60;18.20
1011;DHT22;494;48.744;10.106;2023-05-16T14:12:06;17.60;18.30
1011;DHT22;494;48.744;10.106;2023-05-16T14:14:36;17.60;18.10
1011;DHT22;494;48.744;10.106;2023-05-16T14:17:06;17.50;18.20
1011;DHT22;494;48.744;10.106;2023-05-16T14:19:35;17.20;18.30
1011;DHT22;494;48.744;10.106;2023-05-16T14:22:04;16.80;19.40
1011;DHT22;494;48.744;10.106;2023-05-16T14:24:35;16.80;20.80
1011;DHT22;494;48.744;10.106;2023-05-16T14:27:05;16.80;20.00
1011;DHT22;494;48.744;10.106;2023-05-16T14:29:34;16.80;21.00
1011;DHT22;494;48.744;10.106;2023-05-16T14:32:04;17.00;20.90
1011;DHT22;494;48.744;10.106;2023-05-16T14:34:33;17.10;19.70
1011;DHT22;494;48.744;10.106;2023-05-16T14:37:02;17.00;19.30
1011;DHT22;494;48.744;10.106;2023-05-16T14:39:31;16.80;19.60
1011;DHT22;494;48.744;10.106;2023-05-16T14:42:01;16.70;19.30
1011;DHT22;494;48.744;10.106;2023-05-16T14:44:34;16.40;19.80
1011;DHT22;494;48.744;10.106;2023-05-16T14:47:03;16.20;20.40
1011;DHT22;494;48.744;10.106;2023-05-16T14:49:32;16.10;21.50
1011;DHT22;494;48.744;10.106;2023-05-16T14:52:01;16.00;22.10
1011;DHT22;494;48.744;10.106;2023-05-16T14:54:30;16.20;22.60
1011;DHT22;494;48.744;10.106;2023-05-16T14:57:00;16.20;22.60
1011;DHT22;494;48.744;10.106;2023-05-16T14:59:30;16.10;22.70
1011;DHT22;494;48.744;10.106;2023-05-16T15:01:59;16.10;23.00
1011;DHT22;494;48.744;10.106;2023-05-16T15:04:27;16.40;21.90
1011;DHT22;494;48.744;10.106;2023-05-16T15:06:56;16.40;21.10
1011;DHT22;494;48.744;10.106;2023-05-16T15:09:25;16.40;20.70
1011;DHT22;494;48.744;10.106;2023-05-16T15:11:54;16.50;21.70
1011;DHT22;494;48.744;10.106;2023-05-16T15:14:27;16.60;21.20
1011;DHT22;494;48.744;10.106;2023-05-16T15:16:57;16.70;20.40
1011;DHT22;494;48.744;10.106;2023-05-16T15:19:26;16.80;21.20
1011;DHT22;494;48.744;10.106;2023-05-16T15:22:00;16.80;21.00
1011;DHT22;494;48.744;10.106;2023-05-16T15:25:02;16.80;21.30
1011;DHT22;494;48.744;10.106;2023-05-16T15:28:08;16.80;20.00
1011;DHT22;494;48.744;10.106;2023-05-16T15:30:39;16.60;20.40
1011;DHT22;494;48.744;10.106;2023-05-16T15:33:08;16.50;21.60
1011;DHT22;494;48.744;10.106;2023-05-16T15:35:37;16.50;21.80
1011;DHT22;494;48.744;10.106;2023-05-16T15:38:06;16.20;21.50
1011;DHT22;494;48.744;10.106;2023-05-16T15:40:35;16.00;22.70
1011;DHT22;494;48.744;10.106;2023-05-16T15:43:04;15.90;23.80
1011;DHT22;494;48.744;10.106;2023-05-16T15:45:39;15.90;23.90
1011;DHT22;494;48.744;10.106;2023-05-16T15:48:11;15.90;23.20
1011;DHT22;494;48.744;10.106;2023-05-16T15:50:40;15.70;23.60
1011;DHT22;494;48.744;10.106;2023-05-16T15:53:09;15.70;24.20
1011;DHT22;494;48.744;10.106;2023-05-16T15:55:38;16.00;23.70
1011;DHT22;494;48.744;10.106;2023-05-16T15:58:08;16.10;23.10
1011;DHT22;494;48.744;10.106;2023-05-16T16:00:39;16.00;22.70
1011;DHT22;494;48.744;10.106;2023-05-16T16:03:08;16.00;21.00
1011;DHT22;494;48.744;10.106;2023-05-16T16:05:38;16.00;20.60
1011;DHT22;494;48.744;10.106;2023-05-16T16:08:07;15.90;21.70
1011;DHT22;494;48.744;10.106;2023-05-16T16:10:36;16.00;21.90
1011;DHT22;494;48.744;10.106;2023-05-16T16:13:11;16.10;21.30
1011;DHT22;494;48.744;10.106;2023-05-16T16:15:44;16.20;19.30
1011;DHT22;494;48.744;10.106;2023-05-16T16:18:13;16.00;19.00
1011;DHT22;494;48.744;10.106;2023-05-16T16:20:42;16.00;19.60
1011;DHT22;494;48.744;10.106;2023-05-16T16:23:14;16.30;19.50
1011;DHT22;494;48.744;10.106;2023-05-16T16:25:43;16.50;18.00
1011;DHT22;494;48.744;10.106;2023-05-16T16:28:11;16.60;18.50
1011;DHT22;494;48.744;10.106;2023-05-16T16:30:43;16.80;17.20
1011;DHT22;494;48.744;10.106;2023-05-16T16:33:13;16.80;16.70
1011;DHT22;494;48.744;10.106;2023-05-16T16:35:42;16.60;17.10
1011;DHT22;494;48.744;10.106;2023-05-16T16:38:11;16.40;17.80